Time;durP1;ratioP1;P1;durP2;ratioP2;P2;SDS_P1;SDS_P2;PMS_P1;PMS_P2;Temp;Humidity;BMP_temperature;BMP_pressure;BME280_temperature;BME280_humidity;BME280_pressure;Samples;Min_cycle;Max_cycle;Signal;HPM_P1;HPM_P2
2023/03/07 00:01:06;;;;;;;28.40;16.33;;;;;;;1.00;92.21;99348.90;1462117;88;22398;-78
2023/03/07 00:03:32;;;;;;;29.07;17.13;;;;;;;0.98;92.41;99359.93;1463679;88;21443;-79
2023/03/07 00:06:09;;;;;;;28.30;15.30;;;;;;;0.91;92.99;99367.81;1460940;88;21686;-78
2023/03/07 00:08:36;;;;;;;36.37;18.23;;;;;;;0.88;92.97;99364.96;1463599;88;21747;-78
2023/03/07 00:11:08;;;;;;;51.37;24.63;;;;;;;0.83;93.96;99357.12;1461247;88;21640;-84
2023/03/07 00:13:37;;;;;;;63.73;30.40;;;;;;;0.80;92.99;99358.65;1469028;88;21531;-83
2023/03/07 00:16:07;;;;;;;26.63;15.97;;;;;;;0.79;92.54;99360.43;1471928;89;21502;-84
2023/03/07 00:18:35;;;;;;;24.77;14.73;;;;;;;0.80;91.45;99367.29;1454790;89;21566;-83
2023/03/07 00:21:07;;;;;;;23.50;13.73;;;;;;;0.80;91.67;99364.69;1470620;89;21735;-83
2023/03/07 00:23:35;;;;;;;25.43;14.90;;;;;;;0.78;92.87;99366.59;1464958;89;21524;-84
2023/03/07 00:26:06;;;;;;;25.03;16.10;;;;;;;0.74;92.06;99367.73;1464376;89;21607;-84
2023/03/07 00:28:32;;;;;;;28.23;16.27;;;;;;;0.76;91.41;99367.16;1464176;88;21810;-83
2023/03/07 00:31:02;;;;;;;30.82;16.73;;;;;;;0.74;91.43;99365.13;1468985;89;22384;-84
2023/03/07 00:33:28;;;;;;;29.13;14.77;;;;;;;0.71;93.26;99364.53;1455281;89;21600;-83
2023/03/07 00:36:01;;;;;;;38.73;17.03;;;;;;;0.73;91.46;99362.17;1464465;89;22460;-83
2023/03/07 00:38:29;;;;;;;25.53;15.40;;;;;;;0.76;91.61;99353.31;1465573;89;21745;-86
2023/03/07 00:41:01;;;;;;;24.37;15.20;;;;;;;0.76;90.90;99354.14;1472118;88;21546;-86
2023/03/07 00:43:27;;;;;;;;;;;;;;;0.79;90.58;99355.70;1464656;89;21582;-85
2023/03/07 00:45:55;;;;;;;30.37;17.10;;;;;;;0.79;90.98;99350.48;1463488;88;20351;-85
2023/03/07 00:48:22;;;;;;;27.43;17.10;;;;;;;0.78;90.32;99343.63;1469794;88;21655;-86
2023/03/07 00:50:49;;;;;;;34.30;17.50;;;;;;;0.77;90.66;99347.16;1464928;89;21565;-86
2023/03/07 00:53:16;;;;;;;29.47;17.17;;;;;;;0.73;91.78;99345.25;1466364;88;22521;-85
2023/03/07 00:55:42;;;;;;;22.20;13.70;;;;;;;0.71;92.52;99345.82;1465299;89;22601;-86
2023/03/07 00:58:08;;;;;;;28.00;16.37;;;;;;;0.73;91.31;99345.73;1460287;89;21571;-86
2023/03/07 01:00:34;;;;;;;27.23;15.27;;;;;;;0.76;90.58;99345.02;1446280;89;21605;-87
2023/03/07 01:03:03;;;;;;;26.03;16.47;;;;;;;0.76;90.47;99350.23;1449498;88;21720;-85
2023/03/07 01:05:29;;;;;;;31.47;17.47;;;;;;;0.73;90.38;99340.04;1462754;88;23103;-85
2023/03/07 01:07:56;;;;;;;33.87;18.27;;;;;;;0.72;90.76;99337.53;1464502;88;22055;-83
2023/03/07 01:10:22;;;;;;;30.90;17.13;;;;;;;0.71;90.40;99340.61;1465258;89;21666;-84
2023/03/07 01:12:48;;;;;;;30.07;16.63;;;;;;;0.74;90.35;99349.98;1463450;89;22980;-86
2023/03/07 01:15:14;;;;;;;34.90;18.90;;;;;;;0.76;90.39;99335.91;1464481;89;21636;-86
2023/03/07 01:17:40;;;;;;;31.27;18.27;;;;;;;0.80;90.31;99338.64;1463711;89;21644;-86
2023/03/07 01:20:08;;;;;;;33.10;18.10;;;;;;;0.82;90.44;99340.66;1462290;88;21963;-85
2023/03/07 01:22:35;;;;;;;28.43;16.87;;;;;;;0.87;90.35;99335.13;1461730;88;21618;-86
2023/03/07 01:25:01;;;;;;;35.00;19.97;;;;;;;0.90;90.24;99338.34;1464438;88;21775;-88
2023/03/07 01:27:27;;;;;;;33.63;18.87;;;;;;;0.89;90.44;99323.66;1471314;88;21666;-85
2023/03/07 01:29:53;;;;;;;47.70;21.97;;;;;;;0.89;90.42;99323.66;1461858;89;22551;-87
2023/03/07 01:32:19;;;;;;;39.93;22.00;;;;;;;0.93;90.05;99323.43;1461184;89;21713;-87
2023/03/07 01:34:45;;;;;;;39.43;21.77;;;;;;;0.96;89.96;99318.81;1470396;88;21552;-85
2023/03/07 01:37:12;;;;;;;45.23;22.73;;;;;;;0.97;90.68;99314.43;1470353;88;21566;-84
2023/03/07 01:39:38;;;;;;;45.80;24.30;;;;;;;0.99;90.21;99311.25;1465263;89;21391;-87
2023/03/07 01:42:04;;;;;;;50.17;27.17;;;;;;;0.99;90.01;99309.95;1465534;89;21670;-87
2023/03/07 01:44:31;;;;;;;53.00;27.43;;;;;;;0.98;89.68;99309.56;1460523;88;21495;-87
2023/03/07 01:46:59;;;;;;;56.50;27.07;;;;;;;0.97;89.55;99306.61;1468235;89;21687;-86
2023/03/07 01:49:34;;;;;;;54.80;25.67;;;;;;;0.95;89.73;99309.35;1463164;88;22641;-86
2023/03/07 01:52:11;;;;;;;49.03;26.10;;;;;;;0.95;89.61;99297.63;1463579;89;21773;-86
2023/03/07 01:54:47;;;;;;;58.10;26.90;;;;;;;0.92;90.39;99298.30;1461310;88;21758;-86
2023/03/07 01:57:24;;;;;;;48.50;24.57;;;;;;;0.92;89.92;99302.21;1462669;89;22507;-85
2023/03/07 01:59:55;;;;;;;50.67;27.20;;;;;;;0.92;89.79;99302.21;1467820;88;21488;-87
2023/03/07 02:02:23;;;;;;;46.18;25.40;;;;;;;0.90;90.44;99294.52;1461799;89;21659;-87
2023/03/07 02:05:24;;;;;;;58.33;28.80;;;;;;;0.89;90.48;99292.84;1465940;89;21377;-87
2023/03/07 02:07:51;;;;;;;62.00;29.98;;;;;;;0.86;89.92;99294.38;1466013;88;21627;-87
2023/03/07 02:10:21;;;;;;;56.33;30.05;;;;;;;0.83;90.26;99296.73;1451587;89;22288;-89
2023/03/07 02:12:48;;;;;;;65.83;32.57;;;;;;;0.81;89.98;99294.73;1463622;88;21430;-87
2023/03/07 02:15:14;;;;;;;66.10;32.83;;;;;;;0.79;90.97;99292.70;1459184;88;21672;-87
2023/03/07 02:17:43;;;;;;;64.70;35.52;;;;;;;0.78;90.85;99297.56;1459603;89;22493;-85
2023/03/07 02:20:27;;;;;;;70.73;39.30;;;;;;;0.78;90.58;99298.88;1459999;88;21477;-85
2023/03/07 02:22:54;;;;;;;60.17;34.23;;;;;;;0.77;91.04;99301.09;1420727;89;21601;-86
2023/03/07 02:25:36;;;;;;;66.67;34.83;;;;;;;0.75;91.14;99300.40;1448607;89;22573;-86
2023/03/07 02:28:03;;;;;;;55.75;32.63;;;;;;;0.67;92.03;99293.14;1459844;89;21688;-87
2023/03/07 02:30:29;;;;;;;49.37;26.43;;;;;;;0.59;93.03;99291.56;1469635;89;21370;-85
2023/03/07 02:32:56;;;;;;;55.43;28.40;;;;;;;0.53;92.79;99295.09;1461390;89;21568;-86
2023/03/07 02:35:24;;;;;;;45.47;23.37;;;;;;;0.51;92.76;99286.55;1462541;88;22063;-87
2023/03/07 02:37:58;;;;;;;46.23;23.90;;;;;;;0.53;91.79;99288.58;1464635;88;22955;-87
2023/03/07 02:40:28;;;;;;;43.33;22.17;;;;;;;0.50;92.25;99288.33;1461864;88;21625;-86
2023/03/07 02:42:58;;;;;;;40.30;19.80;;;;;;;0.49;92.03;99285.83;1461016;89;21625;-85
2023/03/07 02:45:24;;;;;;;36.10;18.20;;;;;;;0.43;92.90;99288.40;1465363;88;21568;-86
2023/03/07 02:47:50;;;;;;;35.60;21.17;;;;;;;0.33;93.14;99288.24;1462471;89;21630;-87
2023/03/07 02:50:17;;;;;;;44.53;22.37;;;;;;;0.27;92.46;99276.98;1458602;88;22542;-86
2023/03/07 02:52:44;;;;;;;39.33;20.97;;;;;;;0.24;92.57;99288.09;1466741;88;21660;-85
2023/03/07 02:55:11;;;;;;;41.30;21.13;;;;;;;0.17;93.67;99292.43;1471582;89;22027;-86
2023/03/07 02:57:37;;;;;;;35.93;19.23;;;;;;;0.14;94.83;99288.72;1468918;89;21852;-86
2023/03/07 03:00:06;;;;;;;41.33;21.23;;;;;;;0.15;94.00;99288.27;1462419;88;23173;-86
2023/03/07 03:02:33;;;;;;;36.23;20.05;;;;;;;0.13;94.64;99284.47;1469741;88;21844;-86
2023/03/07 03:05:00;;;;;;;40.60;22.00;;;;;;;0.14;94.27;99290.49;1467823;89;21378;-84
2023/03/07 03:07:26;;;;;;;53.85;27.75;;;;;;;0.14;93.71;99291.32;1471267;89;21897;-86
2023/03/07 03:09:52;;;;;;;41.60;22.97;;;;;;;0.14;93.71;99290.02;1463246;89;22413;-86
2023/03/07 03:12:18;;;;;;;31.42;17.75;;;;;;;0.17;93.56;99292.43;1460616;88;21494;-85
2023/03/07 03:14:44;;;;;;;42.50;21.53;;;;;;;0.16;93.90;99296.42;1461582;89;21503;-87
2023/03/07 03:17:11;;;;;;;40.85;20.72;;;;;;;0.15;93.28;99297.38;1463269;89;22083;-87
2023/03/07 03:19:37;;;;;;;39.00;20.77;;;;;;;0.09;94.69;99304.32;1451389;89;22229;-87
2023/03/07 03:22:03;;;;;;;40.12;22.65;;;;;;;0.03;93.75;99304.73;1455722;89;22793;-87
2023/03/07 03:24:30;;;;;;;40.75;22.52;;;;;;;0.02;94.14;99308.28;1463884;88;21578;-87
2023/03/07 03:26:57;;;;;;;45.43;24.35;;;;;;;0.01;93.36;99304.85;1471598;89;21363;-88
2023/03/07 03:29:24;;;;;;;49.97;25.63;;;;;;;0.03;93.02;99306.88;1462492;89;22404;-88
2023/03/07 03:31:51;;;;;;;39.27;22.45;;;;;;;0.03;93.27;99302.98;1461637;88;22019;-87
2023/03/07 03:34:17;;;;;;;42.67;21.20;;;;;;;0.05;92.90;99308.06;1462072;88;21384;-87
2023/03/07 03:36:43;;;;;;;39.33;22.90;;;;;;;0.03;93.39;99305.59;1466987;88;22623;-87
2023/03/07 03:39:13;;;;;;;54.25;25.60;;;;;;;0.01;93.33;99290.55;1460792;89;22443;-86
2023/03/07 03:41:40;;;;;;;45.30;23.42;;;;;;;0.05;92.75;99300.26;1456683;88;21385;-87
2023/03/07 03:44:07;;;;;;;41.58;24.95;;;;;;;0.02;94.14;99295.27;1469118;89;21455;-87
2023/03/07 03:46:34;;;;;;;45.58;25.02;;;;;;;-0.01;94.06;99294.54;1462157;88;21393;-87
2023/03/07 03:49:00;;;;;;;52.40;26.07;;;;;;;0.01;93.30;99301.42;1467668;88;21460;-85
2023/03/07 03:51:26;;;;;;;38.40;21.33;;;;;;;-0.01;94.70;99304.12;1467012;88;21297;-85
2023/03/07 03:53:54;;;;;;;43.70;23.10;;;;;;;-0.03;94.04;99300.34;1450880;89;21523;-86
2023/03/07 03:56:23;;;;;;;36.50;20.43;;;;;;;-0.03;94.05;99293.84;1462579;88;22185;-85
2023/03/07 03:58:54;;;;;;;38.92;20.85;;;;;;;0.00;93.63;99305.80;1459076;88;21477;-86
2023/03/07 04:01:23;;;;;;;37.45;22.45;;;;;;;0.05;93.56;99305.46;1454090;88;21407;-86
2023/03/07 04:03:52;;;;;;;41.00;22.17;;;;;;;0.07;93.89;99308.80;1463187;89;21303;-87
2023/03/07 04:06:22;;;;;;;39.03;23.15;;;;;;;0.04;94.12;99315.52;1467681;89;21651;-87
2023/03/07 04:08:51;;;;;;;41.68;22.67;;;;;;;0.00;94.93;99312.31;1466065;89;21296;-88
2023/03/07 04:11:18;;;;;;;41.77;22.00;;;;;;;-0.02;95.31;99316.30;1468687;89;21533;-87
2023/03/07 04:13:45;;;;;;;36.33;20.03;;;;;;;0.01;94.89;99315.26;1466487;88;21444;-87
2023/03/07 04:16:11;;;;;;;37.47;20.63;;;;;;;0.05;94.62;99311.97;1466972;88;22946;-87
2023/03/07 04:18:38;;;;;;;36.10;20.10;;;;;;;0.07;95.30;99312.70;1464452;89;21638;-87
2023/03/07 04:21:06;;;;;;;39.40;22.40;;;;;;;0.05;95.89;99315.87;1464166;89;21496;-85
2023/03/07 04:23:33;;;;;;;38.25;21.60;;;;;;;-0.01;96.21;99319.25;1467637;89;22228;-85
2023/03/07 04:26:03;;;;;;;32.58;18.73;;;;;;;0.02;94.96;99313.48;1456420;88;21577;-84
2023/03/07 04:28:43;;;;;;;36.48;21.33;;;;;;;0.02;94.66;99312.19;1461842;89;21422;-84
2023/03/07 04:31:11;;;;;;;38.25;19.80;;;;;;;0.02;94.85;99316.09;1464970;88;21393;-87
2023/03/07 04:33:38;;;;;;;41.08;22.45;;;;;;;-0.03;95.15;99327.66;1468487;89;21452;-83
2023/03/07 04:36:06;;;;;;;33.28;19.37;;;;;;;-0.03;94.33;99322.90;1462532;89;21458;-85
2023/03/07 04:38:33;;;;;;;39.92;20.85;;;;;;;-0.02;94.44;99325.88;1466313;88;21319;-87
2023/03/07 04:40:59;;;;;;;43.85;22.90;;;;;;;-0.03;94.84;99326.36;1463489;88;21481;-87
2023/03/07 04:43:25;;;;;;;54.13;27.87;;;;;;;-0.05;94.95;99330.83;1470227;89;22353;-86
2023/03/07 04:45:53;;;;;;;68.62;34.83;;;;;;;-0.07;95.70;99330.09;1466478;88;21518;-86
2023/03/07 04:48:20;;;;;;;60.48;31.48;;;;;;;-0.08;96.27;99329.73;1471922;88;21356;-86
2023/03/07 04:50:51;;;;;;;42.17;19.77;;;;;;;-0.08;96.04;99327.14;1464799;89;22279;-86
2023/03/07 04:53:21;;;;;;;34.65;19.32;;;;;;;-0.07;95.57;99330.09;1468220;89;21393;-86
2023/03/07 04:55:47;;;;;;;34.33;17.82;;;;;;;-0.10;95.77;99334.20;1465103;89;21378;-87
2023/03/07 04:58:14;;;;;;;40.58;20.95;;;;;;;-0.09;95.12;99331.95;1466762;88;21563;-86
2023/03/07 05:00:45;;;;;;;48.80;22.15;;;;;;;-0.17;95.08;99338.19;1471747;88;21407;-86
2023/03/07 05:03:13;;;;;;;68.15;27.80;;;;;;;-0.21;94.85;99338.02;1459115;89;21910;-86
2023/03/07 05:05:40;;;;;;;67.00;26.85;;;;;;;-0.27;95.81;99344.94;1467099;89;21606;-85
2023/03/07 05:08:07;;;;;;;66.72;27.82;;;;;;;-0.30;96.34;99342.55;1460711;88;21348;-86
2023/03/07 05:10:35;;;;;;;61.13;25.50;;;;;;;-0.32;96.81;99347.02;1468950;89;22565;-86
2023/03/07 05:13:01;;;;;;;61.68;26.20;;;;;;;-0.33;97.22;99349.27;1465533;88;21560;-86
2023/03/07 05:15:27;;;;;;;63.48;27.85;;;;;;;-0.31;97.79;99356.50;1459774;89;21533;-86
2023/03/07 05:17:54;;;;;;;60.00;28.65;;;;;;;-0.31;97.57;99351.30;1466526;89;21400;-88
2023/03/07 05:20:22;;;;;;;52.35;24.92;;;;;;;-0.31;98.13;99356.50;1462649;89;21335;-86
2023/03/07 05:22:49;;;;;;;56.05;25.35;;;;;;;-0.26;97.35;99353.09;1460249;89;21430;-86
2023/03/07 05:25:15;;;;;;;54.67;27.90;;;;;;;-0.22;97.27;99351.14;1445187;89;22454;-88
2023/03/07 05:27:42;;;;;;;61.88;27.60;;;;;;;-0.17;97.11;99345.98;1461689;89;23283;-88
2023/03/07 05:30:11;;;;;;;54.80;25.77;;;;;;;-0.10;96.84;99353.72;1458231;88;21820;-87
2023/03/07 05:32:38;;;;;;;63.57;28.67;;;;;;;-0.07;96.94;99353.50;1468662;89;22354;-85
2023/03/07 05:35:05;;;;;;;66.67;33.80;;;;;;;-0.07;97.08;99349.59;1458403;89;21713;-87
2023/03/07 05:37:32;;;;;;;59.77;30.17;;;;;;;-0.03;96.81;99350.20;1468800;89;21407;-85
2023/03/07 05:39:58;;;;;;;65.12;33.33;;;;;;;0.02;96.47;99344.70;1468265;89;21378;-87
2023/03/07 05:42:26;;;;;;;60.77;32.40;;;;;;;0.06;96.10;99344.39;1470971;89;21422;-86
2023/03/07 05:44:52;;;;;;;56.77;30.80;;;;;;;0.10;95.80;99345.00;1468440;89;22028;-85
2023/03/07 05:47:18;;;;;;;60.63;31.30;;;;;;;0.16;95.70;99341.97;1463082;89;21603;-86
2023/03/07 05:49:45;;;;;;;59.13;30.37;;;;;;;0.15;96.41;99339.84;1467950;88;22582;-88
2023/03/07 05:52:11;;;;;;;61.97;32.13;;;;;;;0.17;96.06;99338.41;1461485;88;21628;-86
2023/03/07 05:54:37;;;;;;;72.37;33.97;;;;;;;0.18;95.94;99333.59;1457166;89;21619;-86
2023/03/07 05:57:03;;;;;;;61.50;31.73;;;;;;;0.23;95.81;99334.07;1467229;88;22803;-87
2023/03/07 05:59:29;;;;;;;60.33;28.70;;;;;;;0.31;95.44;99334.36;1457787;88;21598;-87
2023/03/07 06:01:55;;;;;;;65.33;30.47;;;;;;;0.37;95.30;99340.42;1467256;88;22419;-87
2023/03/07 06:04:21;;;;;;;60.53;33.40;;;;;;;0.41;95.33;99347.09;1461250;88;21541;-87
2023/03/07 06:06:48;;;;;;;61.67;30.93;;;;;;;0.45;95.41;99350.30;1444681;89;21531;-88
2023/03/07 06:09:14;;;;;;;69.13;33.00;;;;;;;0.51;95.25;99362.05;1465675;89;21582;-88
2023/03/07 06:11:40;;;;;;;58.37;31.93;;;;;;;0.54;95.22;99360.53;1468243;89;21703;-88
2023/03/07 06:14:06;;;;;;;64.07;32.80;;;;;;;0.59;94.96;99364.95;1462770;89;21550;-91
2023/03/07 06:16:32;;;;;;;59.17;30.80;;;;;;;0.62;94.69;99360.81;1478216;89;21605;-90
2023/03/07 06:18:59;;;;;;;64.97;31.57;;;;;;;0.67;94.42;99360.84;1466900;89;21604;-88
2023/03/07 06:21:30;;;;;;;66.17;33.60;;;;;;;0.73;94.41;99364.78;1465974;88;21744;-85
2023/03/07 06:23:53;;;;;;;61.43;33.30;;;;;;;0.73;94.08;99359.58;1461884;89;21727;-92
2023/03/07 06:26:19;;;;;;;64.97;33.27;;;;;;;0.71;93.84;99366.66;1464661;88;21702;-93
2023/03/07 06:28:45;;;;;;;46.30;24.13;;;;;;;0.67;93.75;99366.53;1450265;89;21600;-90
2023/03/07 06:31:15;;;;;;;46.17;23.63;;;;;;;0.64;94.10;99371.48;1448654;89;21605;-91
2023/03/07 06:33:46;;;;;;;46.07;22.60;;;;;;;0.62;93.89;99381.65;1463895;88;23198;-89
2023/03/07 06:36:15;;;;;;;48.80;25.10;;;;;;;0.56;93.96;99382.92;1467800;89;21640;-89
2023/03/07 06:38:41;;;;;;;41.40;22.57;;;;;;;0.67;93.98;99392.58;1461085;89;21700;-87
2023/03/07 06:41:08;;;;;;;48.07;23.80;;;;;;;0.71;94.33;99390.58;1449246;89;21630;-89
2023/03/07 06:43:34;;;;;;;36.23;21.47;;;;;;;0.78;93.76;99391.81;1459666;89;21538;-91
2023/03/07 06:46:01;;;;;;;40.33;21.73;;;;;;;0.81;94.11;99396.32;1459798;89;21502;-88
2023/03/07 06:48:27;;;;;;;35.80;20.07;;;;;;;0.86;93.91;99402.04;1460821;88;21716;-88
2023/03/07 06:50:54;;;;;;;42.57;22.90;;;;;;;0.73;94.14;99398.64;1460070;88;21736;-87
2023/03/07 06:53:20;;;;;;;46.37;22.90;;;;;;;0.72;94.68;99406.11;1462844;89;21677;-86
2023/03/07 06:55:51;;;;;;;59.33;29.37;;;;;;;0.74;94.84;99408.11;1462212;88;21750;-86
2023/03/07 06:58:18;;;;;;;49.10;25.50;;;;;;;0.83;93.99;99403.53;1387129;89;22309;-92
2023/03/07 07:00:44;;;;;;;56.70;30.17;;;;;;;0.96;94.11;99409.19;1388517;89;21179;-84
2023/03/07 07:03:17;;;;;;;51.33;27.90;;;;;;;1.12;94.08;99401.89;1394377;88;22350;-85
2023/03/07 07:05:49;;;;;;;49.40;27.47;;;;;;;1.29;93.97;99402.78;1518495;88;22379;-83
2023/03/07 07:08:17;;;;;;;56.90;30.53;;;;;;;1.42;93.62;99402.72;1388877;89;21486;-90
2023/03/07 07:10:45;;;;;;;66.20;35.80;;;;;;;1.56;93.11;99409.03;1385387;88;21611;-90
2023/03/07 07:13:13;;;;;;;58.07;30.77;;;;;;;1.70;92.72;99413.70;1416279;88;21519;-86
2023/03/07 07:15:40;;;;;;;58.13;33.07;;;;;;;1.77;91.91;99414.41;1547344;89;21510;-90
2023/03/07 07:18:06;;;;;;;60.20;34.73;;;;;;;1.97;92.34;99413.36;1388893;89;22308;-87
2023/03/07 07:20:32;;;;;;;59.03;33.90;;;;;;;2.18;92.17;99412.17;1547412;88;21537;-87
2023/03/07 07:22:58;;;;;;;58.70;33.37;;;;;;;2.38;91.98;99408.84;1401268;89;21430;-89
2023/03/07 07:25:25;;;;;;;65.27;37.43;;;;;;;2.55;91.06;99398.86;1540329;88;21624;-89
2023/03/07 07:27:51;;;;;;;68.30;38.30;;;;;;;2.73;90.27;99401.78;1432113;89;21654;-91
2023/03/07 07:30:17;;;;;;;66.50;38.23;;;;;;;3.00;89.16;99394.34;1463826;88;21751;-84
2023/03/07 07:32:43;;;;;;;57.47;35.33;;;;;;;3.00;89.16;99394.34;1460451;88;21815;-84
2023/03/07 07:35:09;;;;;;;64.20;32.97;;;;;;;3.00;87.44;99396.13;1458295;88;21906;-86
2023/03/07 07:37:36;;;;;;;61.73;35.43;;;;;;;3.12;87.99;99382.88;1447829;89;21918;-86
2023/03/07 07:40:09;;;;;;;59.00;33.83;;;;;;;3.48;87.55;99393.89;1461328;89;22173;-88
2023/03/07 07:42:34;;;;;;;54.43;33.20;;;;;;;3.61;86.80;99389.28;1465742;88;21879;-84
2023/03/07 07:45:01;;;;;;;60.70;37.17;;;;;;;3.69;86.36;99388.64;1464235;89;22221;-84
2023/03/07 07:47:27;;;;;;;63.13;38.00;;;;;;;3.69;86.36;99388.64;1462814;89;22128;-87
2023/03/07 07:49:53;;;;;;;55.60;31.87;;;;;;;3.86;86.95;99385.91;1462170;89;23001;-87
2023/03/07 07:52:19;;;;;;;68.37;35.77;;;;;;;4.01;85.48;99385.91;1464179;88;22171;-82
2023/03/07 07:54:46;;;;;;;60.63;34.00;;;;;;;4.15;85.38;99379.50;1450780;89;22073;-84
2023/03/07 07:57:12;;;;;;;57.70;33.63;;;;;;;4.33;85.05;99378.87;1464454;88;22149;-85
2023/03/07 07:59:38;;;;;;;59.77;34.13;;;;;;;4.51;85.12;99378.07;1463418;89;22246;-86
2023/03/07 08:02:04;;;;;;;57.17;33.70;;;;;;;4.71;82.31;99374.19;1461523;89;22089;-88
2023/03/07 08:04:30;;;;;;;63.80;32.77;;;;;;;4.71;82.31;99374.19;1463522;89;21519;-84
2023/03/07 08:06:57;;;;;;;43.93;25.07;;;;;;;4.86;82.44;99382.48;1461337;88;21991;-86
2023/03/07 08:09:23;;;;;;;42.57;26.10;;;;;;;4.88;79.51;99384.00;1460378;89;21370;-87
2023/03/07 08:11:49;;;;;;;44.73;27.10;;;;;;;5.01;79.76;99389.48;1459642;89;22451;-87
2023/03/07 08:14:15;;;;;;;47.43;24.60;;;;;;;5.10;80.14;99393.91;1450959;89;21385;-87
2023/03/07 08:16:41;;;;;;;40.27;24.33;;;;;;;5.15;78.76;99390.36;1448688;89;21430;-87
2023/03/07 08:19:07;;;;;;;39.07;22.77;;;;;;;5.23;79.30;99390.50;1463778;89;21443;-83
2023/03/07 08:21:33;;;;;;;50.63;27.27;;;;;;;5.25;76.45;99395.13;1464623;89;21496;-83
2023/03/07 08:23:59;;;;;;;36.63;21.63;;;;;;;5.35;77.60;99390.72;1461049;89;21370;-82
2023/03/07 08:26:26;;;;;;;45.10;24.40;;;;;;;5.52;77.60;99396.20;1465557;89;21503;-82
2023/03/07 08:28:53;;;;;;;59.23;30.07;;;;;;;5.65;77.36;99394.13;1463427;89;22473;-83
2023/03/07 08:31:23;;;;;;;53.23;30.03;;;;;;;5.80;76.89;99397.95;1446808;89;21406;-83
2023/03/07 08:33:50;;;;;;;38.00;23.90;;;;;;;5.94;77.05;99398.52;1384965;89;22251;-83
2023/03/07 08:36:17;;;;;;;37.37;20.77;;;;;;;5.94;73.57;99398.02;1373220;91;21282;-83
2023/03/07 08:38:45;;;;;;;33.10;20.10;;;;;;;5.81;71.29;99400.94;1388802;88;22178;-83
2023/03/07 08:41:11;;;;;;;44.37;24.07;;;;;;;5.76;71.49;99400.53;1386801;89;21429;-83
2023/03/07 08:43:40;;;;;;;43.80;24.40;;;;;;;5.79;72.12;99394.99;1394408;89;21349;-83
2023/03/07 08:46:06;;;;;;;36.57;23.03;;;;;;;5.82;73.24;99393.39;1498398;88;21408;-82
2023/03/07 08:48:33;;;;;;;40.93;23.20;;;;;;;5.85;72.25;99399.67;1388318;89;22245;-83
2023/03/07 08:51:08;;;;;;;36.47;23.10;;;;;;;5.94;72.62;99401.13;1388390;88;21312;-83
2023/03/07 08:53:35;;;;;;;33.33;18.87;;;;;;;6.04;72.69;99390.95;1391818;89;21275;-82
2023/03/07 08:56:10;;;;;;;40.13;20.77;;;;;;;6.07;71.50;99393.75;1387851;89;21216;-82
2023/03/07 08:58:37;;;;;;;29.77;18.93;;;;;;;6.11;72.04;99387.25;1547162;88;21187;-83
2023/03/07 09:01:05;;;;;;;32.57;19.77;;;;;;;6.15;70.22;99383.84;1388915;88;21459;-82
2023/03/07 09:03:34;;;;;;;31.27;17.97;;;;;;;6.20;70.13;99377.18;1378770;90;21456;-82
2023/03/07 09:06:01;;;;;;;35.10;19.07;;;;;;;6.28;70.05;99378.60;1387677;89;22236;-83
2023/03/07 09:08:28;;;;;;;33.53;19.47;;;;;;;6.41;70.10;99382.69;1388125;89;21261;-82
2023/03/07 09:10:54;;;;;;;35.23;18.47;;;;;;;6.60;70.35;99379.95;1388513;88;22104;-82
2023/03/07 09:13:20;;;;;;;29.40;18.43;;;;;;;6.68;68.04;99374.79;1394464;89;21238;-82
2023/03/07 09:15:46;;;;;;;31.33;18.20;;;;;;;6.75;68.27;99377.15;1388669;89;21245;-82
2023/03/07 09:18:12;;;;;;;34.50;19.53;;;;;;;6.90;69.15;99376.14;1540488;89;22068;-82
2023/03/07 09:20:39;;;;;;;28.33;18.43;;;;;;;6.99;67.47;99390.20;1464557;89;21526;-82
2023/03/07 09:23:07;;;;;;;27.30;16.03;;;;;;;7.03;67.37;99386.31;1465257;88;21924;-83
2023/03/07 09:25:33;;;;;;;32.70;16.30;;;;;;;7.22;68.48;99387.48;1459384;88;21458;-83
2023/03/07 09:27:59;;;;;;;32.23;17.33;;;;;;;7.35;67.25;99387.58;1464086;88;21297;-82
2023/03/07 09:30:27;;;;;;;30.63;18.83;;;;;;;7.35;67.10;99384.94;1464367;89;22323;-83
2023/03/07 09:32:54;;;;;;;26.47;16.33;;;;;;;7.42;67.39;99391.23;1463681;89;21422;-83
2023/03/07 09:35:21;;;;;;;23.33;16.03;;;;;;;7.51;66.75;99392.98;1463253;89;21437;-83
2023/03/07 09:37:47;;;;;;;27.60;18.13;;;;;;;7.65;65.64;99392.42;1460274;88;22331;-83
2023/03/07 09:40:23;;;;;;;26.90;17.33;;;;;;;7.83;64.13;99398.13;1463124;89;21378;-84
2023/03/07 09:43:19;;;;;;;27.00;16.40;;;;;;;8.03;64.84;99394.30;1462306;89;21591;-84
2023/03/07 09:46:21;;;;;;;30.67;18.37;;;;;;;8.32;64.22;99388.67;1462801;88;21676;-86
2023/03/07 09:49:01;;;;;;;28.00;15.10;;;;;;;8.62;62.62;99392.27;1461244;88;22427;-79
2023/03/07 09:51:38;;;;;;;24.85;15.50;;;;;;;8.97;62.33;99389.37;1442044;89;21384;-79
2023/03/07 09:54:24;;;;;;;32.13;18.93;;;;;;;9.11;59.75;99387.09;1461419;88;21363;-81
2023/03/07 09:56:59;;;;;;;33.90;18.67;;;;;;;9.32;60.85;99384.81;1546171;89;21363;-85
2023/03/07 09:59:48;;;;;;;28.80;18.63;;;;;;;9.47;58.66;99388.92;1374654;90;21363;-91
2023/03/07 10:02:48;;;;;;;32.30;19.63;;;;;;;9.65;58.97;99393.53;1390301;89;21326;-87
2023/03/07 10:05:28;;;;;;;32.60;19.12;;;;;;;9.68;57.87;99395.02;1547474;88;21305;-90
2023/03/07 10:07:55;;;;;;;33.78;19.67;;;;;;;9.72;57.60;99397.64;1547255;88;21200;-88
2023/03/07 10:10:36;;;;;;;27.83;15.90;;;;;;;9.82;57.57;99398.30;1388902;88;21401;-89
2023/03/07 10:13:15;;;;;;;32.83;18.80;;;;;;;9.92;56.01;99393.64;1541267;88;21275;-89
2023/03/07 10:15:57;;;;;;;32.17;18.47;;;;;;;9.96;55.41;99395.97;1547359;89;21180;-91
2023/03/07 10:18:53;;;;;;;33.50;18.57;;;;;;;9.98;54.84;99397.92;1386049;90;22171;-91
2023/03/07 10:21:37;;;;;;;28.63;16.43;;;;;;;9.99;52.93;99391.66;1393620;88;21334;-87
2023/03/07 10:24:21;;;;;;;30.37;17.17;;;;;;;10.02;54.09;99393.97;1386164;89;21445;-94
2023/03/07 10:26:58;;;;;;;26.53;17.67;;;;;;;9.98;53.71;99392.14;1461039;88;21304;-84
2023/03/07 10:29:29;;;;;;;35.53;18.27;;;;;;;9.89;52.00;99392.66;1385052;89;21511;-83
2023/03/07 10:32:07;;;;;;;26.67;17.67;;;;;;;9.84;53.27;99383.11;1391356;89;21467;-82
2023/03/07 10:34:35;;;;;;;26.40;16.33;;;;;;;9.81;52.24;99382.13;1395861;89;21519;-81
2023/03/07 10:37:19;;;;;;;31.97;18.87;;;;;;;9.89;52.96;99376.80;1547104;88;21246;-81
2023/03/07 10:39:55;;;;;;;29.53;17.43;;;;;;;9.98;52.47;99376.78;1547248;88;21187;-82
2023/03/07 10:42:25;;;;;;;29.60;18.37;;;;;;;10.03;52.53;99365.21;1390858;88;22232;-82
2023/03/07 10:44:51;;;;;;;29.07;17.15;;;;;;;9.93;50.23;99365.41;1544094;89;21282;-81
2023/03/07 10:47:27;;;;;;;31.23;18.67;;;;;;;9.87;50.75;99360.30;1389143;89;21267;-83
2023/03/07 10:50:14;;;;;;;31.27;18.70;;;;;;;9.76;50.28;99358.02;1547101;89;21275;-82
2023/03/07 10:52:48;;;;;;;22.23;13.97;;;;;;;9.67;48.85;99357.70;1531548;89;21334;-82
2023/03/07 10:55:36;;;;;;;24.17;15.47;;;;;;;9.71;50.37;99349.77;1384306;89;21275;-82
2023/03/07 10:58:23;;;;;;;23.33;14.00;;;;;;;9.70;50.64;99358.69;1413507;89;21385;-83
2023/03/07 11:01:16;;;;;;;32.53;18.23;;;;;;;9.52;49.73;99354.08;1465099;88;21386;-82
2023/03/07 11:04:01;;;;;;;31.73;18.27;;;;;;;9.46;50.68;99343.68;1462732;88;21355;-81
2023/03/07 11:06:40;;;;;;;26.17;16.40;;;;;;;9.38;50.60;99344.53;1462446;88;21517;-83
2023/03/07 11:09:31;;;;;;;23.20;15.13;;;;;;;9.33;49.53;99336.28;1465249;89;21546;-82
2023/03/07 11:12:12;;;;;;;24.40;14.10;;;;;;;9.40;49.85;99342.53;1466736;88;21341;-82
2023/03/07 11:14:49;;;;;;;21.95;13.40;;;;;;;9.22;48.96;99334.79;1460090;89;22487;-82
2023/03/07 11:17:32;;;;;;;35.07;19.80;;;;;;;9.11;49.23;99331.66;1450083;89;21429;-82
2023/03/07 11:19:57;;;;;;;25.03;16.00;;;;;;;8.98;49.21;99322.92;1462324;89;21511;-81
2023/03/07 11:22:33;;;;;;;24.10;15.20;;;;;;;8.79;48.85;99320.09;1463865;89;22390;-81
2023/03/07 11:25:13;;;;;;;25.67;15.90;;;;;;;8.74;48.51;99319.75;1460580;88;21415;-82
2023/03/07 11:27:48;;;;;;;28.20;16.62;;;;;;;8.57;48.48;99321.52;1462123;89;21348;-84
2023/03/07 11:30:54;;;;;;;28.27;16.13;;;;;;;8.55;48.80;99319.56;1465427;88;21451;-83
2023/03/07 11:33:50;;;;;;;23.37;15.93;;;;;;;8.49;48.48;99305.21;1462375;88;22413;-82
2023/03/07 11:36:28;;;;;;;36.80;19.13;;;;;;;8.45;47.29;99310.95;1466404;88;22605;-81